Latest Weather Observations for Warwick

IDQ60901

Issued at 10:21 am EST Monday 16 September 2019 (issued every 10 minutes, with the page automatically refreshed every 10 minutes)

About weather observations | Map of Brisbane area stations | Latest observations for Brisbane area | Other Formats
Station Details ID: 041525 Name: WARWICK Lat: -28.21 Lon: 152.10 Height: 475.4 m
Data from the previous 72 hours. | See also: Recent months at Warwick
Date/Time
EST
Temp
°C
App
Temp
°C
Dew
Point
°C
Rel
Hum
%
Delta-T
°C
Wind Press
QNH
hPa
Press
MSL
hPa
Rain since
9am
mm
Dir  Spd
km/h
Gust
km/h
Spd
kts
Gust
kts
16/10:00am 22.2 18.2 6.8 37 8.0 WNW 17 28 9 15 1022.4 1021.5 0.0
16/09:30am 22.3 20.0 9.1 43 7.2 NW 11 24 6 13 1022.8 1021.9 0.0
16/09:00am 18.6 16.8 8.0 50 5.5 SW 7 13 4 7 1023.2 1022.4 0.0
16/08:30am 16.0 14.2 7.0 55 4.6 SW 6 9 3 5 1023.2 1022.4 0.0
16/08:00am 13.4 11.2 5.1 57 3.9 SW 6 7 3 4 1023.3 1022.5 0.0
16/07:30am 10.3 7.7 3.3 62 3.1 SW 6 7 3 4 1023.3 1022.5 0.0
16/07:00am 7.8 6.0 1.4 64 2.7 CALM 0 0 0 0 1023.0 1022.2 0.0
16/06:30am 6.6 5.1 2.9 77 1.6 CALM 0 0 0 0 1022.9 1022.0 0.0
16/06:00am 6.6 5.2 3.8 82 1.2 CALM 0 0 0 0 1022.7 1021.8 0.0
16/05:30am 6.3 4.7 2.6 77 1.6 CALM 0 0 0 0 1022.4 1021.5 0.0
16/05:00am 7.1 5.8 3.9 80 1.4 CALM 0 0 0 0 1022.4 1021.5 0.0
16/04:30am 6.3 4.7 2.2 75 1.7 CALM 0 0 0 0 1022.3 1021.4 0.0
16/04:00am 6.0 4.1 0.8 69 2.1 CALM 0 0 0 0 1022.3 1021.4 0.0
16/03:30am 6.9 5.3 2.6 74 1.8 CALM 0 0 0 0 1022.1 1021.2 0.0
16/03:00am 7.4 4.7 2.5 71 2.1 WSW 6 9 3 5 1022.1 1021.2 0.0
16/02:30am 10.8 9.0 7.3 79 1.7 NNE 6 7 3 4 1022.1 1021.2 0.0
16/02:00am 8.2 5.2 2.2 66 2.6 ENE 7 9 4 5 1022.6 1021.7 0.0
16/01:30am 8.7 5.8 2.5 65 2.7 ENE 7 9 4 5 1022.9 1022.0 0.0
16/01:00am 9.7 8.2 3.2 64 2.9 CALM 0 0 0 0 1023.2 1022.4 0.0
16/12:30am 9.8 8.1 1.9 58 3.4 CALM 0 0 0 0 1023.3 1022.5 0.0
16/12:00am 12.2 11.2 5.8 65 3.1 CALM 0 0 0 0 1023.3 1022.5 0.0
 
Date/Time
EST
Temp
°C
App
Temp
°C
Dew
Point
°C
Rel
Hum
%
Delta-T
°C
Wind Press
QNH
hPa
Press
MSL
hPa
Rain since
9am
mm
Dir  Spd
km/h
Gust
km/h
Spd
kts
Gust
kts
15/11:30pm 12.6 11.7 6.0 64 3.2 CALM 0 0 0 0 1023.3 1022.5 0.0
15/11:00pm 12.9 10.8 5.6 61 3.5 WSW 6 9 3 5 1023.2 1022.4 0.0
15/10:30pm 13.2 11.0 5.4 59 3.7 WSW 6 9 3 5 1023.1 1022.3 0.0
15/10:00pm 14.2 12.0 5.3 55 4.3 W 6 9 3 5 1023.2 1022.4 0.0
15/09:30pm 14.2 11.8 4.2 51 4.7 W 6 9 3 5 1023.2 1022.4 0.0
15/09:00pm 14.2 11.7 3.7 49 4.9 WSW 6 9 3 5 1023.1 1022.3 0.0
15/08:30pm 16.0 13.1 2.4 40 6.3 SSE 7 11 4 6 1023.0 1022.2 0.0
15/08:00pm 17.9 13.5 4.8 42 6.4 NE 17 20 9 11 1022.7 1021.8 0.0
15/07:30pm 18.4 14.8 4.9 41 6.7 ENE 13 19 7 10 1022.6 1021.7 0.0
15/07:00pm 18.9 15.6 4.3 38 7.1 NE 11 15 6 8 1022.3 1021.4 0.0
15/06:30pm 20.7 16.0 3.0 31 8.6 NNE 17 22 9 12 1022.0 1021.1 0.0
15/06:00pm 22.3 17.0 1.9 26 9.7 N 19 22 10 12 1021.5 1020.7 0.0
15/05:30pm 23.2 18.0 0.3 22 10.7 N 17 20 9 11 1021.3 1020.5 0.0
15/05:00pm 24.8 20.0 -2.7 16 12.3 N 13 19 7 10 1021.1 1020.2 0.0
15/04:30pm 25.5 20.9 -1.3 17 12.4 NW 13 19 7 10 1021.1 1020.2 0.0
15/04:00pm 26.0 21.9 -0.1 18 12.3 WNW 11 20 6 11 1020.8 1019.9 0.0
15/03:30pm 26.2 22.0 -0.8 17 12.7 NW 11 24 6 13 1020.6 1019.7 0.0
15/03:00pm 26.7 21.8 -0.3 17 12.8 WSW 15 20 8 11 1020.7 1019.8 0.0
15/02:30pm 25.9 21.2 -1.8 16 12.7 NNW 13 22 7 12 1020.9 1020.0 0.0
15/02:00pm 26.2 21.5 -1.6 16 12.8 WNW 13 24 7 13 1021.2 1020.4 0.0
15/01:30pm 26.1 21.6 0.0 18 12.4 W 13 20 7 11 1021.7 1020.8 0.0
15/01:00pm 25.4 21.7 0.1 19 11.9 WSW 9 17 5 9 1022.2 1021.3 0.0
15/12:30pm 25.6 22.1 1.0 20 11.9 W 9 17 5 9 1022.7 1021.8 0.0
15/12:00pm 24.8 21.0 1.7 22 11.2 NNE 11 22 6 12 1023.0 1022.2 0.0
15/11:30am 23.4 19.8 0.5 22 10.8 W 9 17 5 9 1023.8 1023.0 0.0
15/11:00am 22.7 19.5 2.8 27 9.7 NNW 9 17 5 9 1024.2 1023.3 0.0
15/10:30am 22.0 18.9 3.6 30 9.1 WNW 9 19 5 10 1024.6 1023.7 0.0
15/10:00am 20.4 18.3 6.7 41 7.1 SW 7 15 4 8 1025.0 1024.2 0.0
15/09:30am 17.8 16.0 7.2 50 5.5 S 6 9 3 5 1025.1 1024.3 0.0
15/09:00am 15.9 14.1 7.1 56 4.4 SW 6 9 3 5 1025.2 1024.4 0.0
15/08:30am 13.8 11.9 6.7 62 3.5 S 6 9 3 5 1025.4 1024.6 0.0
15/08:00am 13.0 11.8 6.6 65 3.1 ENE 2 7 1 4 1025.5 1024.7 0.0
15/07:30am 9.8 8.4 3.3 64 2.9 CALM 0 0 0 0 1025.3 1024.5 0.0
15/07:00am 6.8 4.9 2.9 76 1.7 ENE 2 6 1 3 1025.0 1024.2 0.0
15/06:30am 4.0 0.7 0.3 77 1.4 ENE 7 11 4 6 1024.5 1023.6 0.0
15/06:00am 3.8 0.7 1.5 85 0.9 NNE 7 9 4 5 1024.2 1023.3 0.0
15/05:30am 6.5 4.3 5.3 92 0.5 NNE 6 9 3 5 1023.8 1023.0 0.0
15/05:00am 4.1 0.5 0.4 77 1.4 NE 9 13 5 7 1023.7 1022.9 0.0
15/04:30am 5.0 2.1 1.5 78 1.4 NNE 6 7 3 4 1023.3 1022.5 0.0
15/04:00am 4.7 1.6 0.1 72 1.8 NE 6 7 3 4 1023.1 1022.3 0.0
15/03:30am 6.9 4.4 4.6 85 1.0 NNE 7 9 4 5 1022.9 1022.0 0.0
15/03:00am 8.6 5.8 5.0 78 1.6 NE 9 11 5 6 1023.0 1022.2 0.0
15/02:30am 9.9 8.1 7.8 87 1.0 NNE 7 11 4 6 1023.3 1022.5 0.0
15/02:00am 9.2 8.4 6.6 84 1.2 CALM 0 0 0 0 1023.3 1022.5 0.0
15/01:30am 10.0 9.5 7.9 87 1.0 CALM 0 0 0 0 1023.4 1022.6 0.0
15/01:00am 9.9 9.1 6.4 79 1.7 CALM 0 0 0 0 1023.6 1022.8 0.0
15/12:30am 10.6 9.9 7.1 79 1.7 CALM 0 6 0 3 1023.8 1023.0 0.0
15/12:00am 11.0 10.3 7.1 77 1.9 CALM 0 6 0 3 1023.8 1023.0 0.0
 
Date/Time
EST
Temp
°C
App
Temp
°C
Dew
Point
°C
Rel
Hum
%
Delta-T
°C
Wind Press
QNH
hPa
Press
MSL
hPa
Rain since
9am
mm
Dir  Spd
km/h
Gust
km/h
Spd
kts
Gust
kts
14/11:30pm 12.1 9.8 7.4 73 2.3 SSE 9 15 5 8 1024.0 1023.1 0.0
14/11:00pm 12.7 10.5 6.3 65 3.1 SSE 7 11 4 6 1024.2 1023.3 0.0
14/10:30pm 13.2 9.9 4.6 56 4.1 SSE 11 15 6 8 1024.0 1023.1 0.0
14/10:00pm 13.5 10.4 3.6 51 4.6 SSE 9 13 5 7 1024.0 1023.1 0.0
14/09:30pm 14.1 10.1 2.7 46 5.2 SSE 13 17 7 9 1024.0 1023.1 0.0
14/09:00pm 14.7 10.2 2.3 43 5.6 SSE 15 22 8 12 1023.7 1022.9 0.0
14/08:30pm 15.1 10.7 0.5 37 6.4 S 13 22 7 12 1023.5 1022.7 0.0
14/08:00pm 16.1 10.9 -0.2 33 7.1 S 17 28 9 15 1023.3 1022.5 0.0
14/07:30pm 16.9 12.2 -1.7 28 7.9 S 13 24 7 13 1023.1 1022.3 0.0
14/07:00pm 17.9 12.4 -1.9 26 8.4 S 17 26 9 14 1022.2 1021.3 0.0
14/06:30pm 19.3 11.7 -2.3 23 9.3 SSE 28 43 15 23 1021.5 1020.7 0.0
14/06:28pm 19.4 11.8 -2.2 23 9.3 SSE 28 43 15 23 1021.4 1020.6 0.0
14/06:00pm 20.7 16.4 -8.7 13 11.2 WSW 7 11 4 6 1020.2 1019.3 0.0
14/05:30pm 24.4 18.1 -10.5 9 13.5 WSW 17 26 9 14 1019.7 1018.8 0.0
14/05:00pm 25.7 18.4 -11.0 8 14.2 WSW 22 35 12 19 1019.2 1018.3 0.0
14/04:30pm 26.5 18.9 -10.4 8 14.6 SW 24 32 13 17 1019.1 1018.2 0.0
14/04:00pm 27.4 19.3 -11.4 7 15.1 SW 26 37 14 20 1018.9 1018.0 0.0
14/03:30pm 27.6 19.8 -13.2 6 15.5 SW 24 39 13 21 1019.0 1018.1 0.0
14/03:00pm 27.7 20.6 -13.1 6 15.5 WSW 20 35 11 19 1018.7 1017.8 0.0
14/02:30pm 27.8 22.1 -7.9 9 14.9 WSW 15 26 8 14 1018.9 1018.0 0.0
14/02:00pm 27.4 21.1 -9.7 8 14.9 WSW 17 32 9 17 1019.2 1018.3 0.0
14/01:30pm 27.3 21.0 -9.8 8 14.9 WSW 17 28 9 15 1019.3 1018.5 0.0
14/01:00pm 26.3 19.9 -12.2 7 14.6 WSW 17 28 9 15 1020.0 1019.1 0.0
14/12:30pm 26.5 20.8 -7.6 10 14.2 WSW 15 30 8 16 1020.3 1019.4 0.0
14/12:00pm 24.9 19.7 -2.6 16 12.3 W 15 24 8 13 1021.1 1020.2 0.0
14/11:30am 23.2 18.6 -1.0 20 11.0 WNW 13 28 7 15 1021.9 1021.0 0.0
14/11:00am 23.1 18.8 0.9 23 10.5 WNW 13 20 7 11 1022.5 1021.6 0.0
14/10:30am 21.5 16.6 -0.5 23 10.0 WNW 15 22 8 12 1022.9 1022.0 0.0
14/10:00am 21.1 16.2 -0.2 24 9.7 W 15 30 8 16 1023.1 1022.3 0.0
14/09:30am 19.9 17.0 1.4 29 8.6 W 6 13 3 7 1023.3 1022.5 0.0
14/09:00am 17.0 15.7 4.3 43 6.1 CALM 0 0 0 0 1023.8 1023.0 0.0
14/08:30am 14.1 12.5 2.7 46 5.2 CALM 0 0 0 0 1024.1 1023.2 0.0
14/08:00am 11.6 9.6 0.1 45 4.8 CALM 0 0 0 0 1024.0 1023.1 0.0
14/07:30am 8.2 6.0 -1.9 49 3.9 CALM 0 0 0 0 1023.5 1022.7 0.0
14/07:00am 6.6 4.2 -2.8 51 3.5 CALM 0 0 0 0 1023.4 1022.6 0.0
14/06:30am 3.5 1.0 -4.0 58 2.6 CALM 0 0 0 0 1023.1 1022.3 0.0
14/06:00am 2.8 0.6 -1.5 73 1.6 CALM 0 0 0 0 1022.9 1022.0 0.0
14/05:30am 2.4 0.1 -2.5 70 1.7 CALM 0 0 0 0 1022.7 1021.8 0.0
14/05:00am 2.8 0.5 -2.5 68 1.9 CALM 0 0 0 0 1022.5 1021.6 0.0
14/04:30am 4.1 1.7 -3.2 59 2.6 CALM 0 0 0 0 1022.5 1021.6 0.0
14/04:00am 4.8 2.4 -3.5 55 3.0 CALM 0 4 0 2 1022.5 1021.6 0.0
14/03:30am 4.9 1.9 -2.0 61 2.6 NE 4 7 2 4 1022.2 1021.3 0.0
14/03:00am 4.9 2.4 -3.9 53 3.1 CALM 0 0 0 0 1022.4 1021.5 0.0
14/02:30am 4.8 2.3 -4.0 53 3.1 CALM 0 0 0 0 1022.3 1021.4 0.0
14/02:00am 5.6 2.2 -2.2 57 2.9 N 6 7 3 4 1022.4 1021.5 0.0
14/01:30am 5.6 2.4 -3.7 51 3.3 NNE 4 6 2 3 1022.7 1021.8 0.0
14/01:00am 6.4 3.8 -4.9 44 4.0 CALM 0 0 0 0 1023.2 1022.4 0.0
14/12:30am 11.6 9.6 6.3 70 2.6 NNE 6 9 3 5 1023.2 1022.4 0.0
14/12:00am 8.7 6.8 0.7 57 3.3 CALM 0 7 0 4 1023.5 1022.7 0.0
 
Date/Time
EST
Temp
°C
App
Temp
°C
Dew
Point
°C
Rel
Hum
%
Delta-T
°C
Wind Press
QNH
hPa
Press
MSL
hPa
Rain since
9am
mm
Dir  Spd
km/h
Gust
km/h
Spd
kts
Gust
kts
13/11:30pm 11.3 10.2 5.2 66 2.9 CALM 0 6 0 3 1023.5 1022.7 0.0
13/11:00pm 11.5 9.9 2.3 53 4.1 CALM 0 0 0 0 1023.5 1022.7 0.0
13/10:30pm 13.0 10.5 3.9 54 4.2 NNE 6 9 3 5 1023.4 1022.6 0.0
13/10:00pm 12.7 9.7 2.3 49 4.6 NNE 7 9 4 5 1023.3 1022.5 0.0
13/09:30pm 13.9 11.7 3.1 48 5.0 NE 4 13 2 7 1023.2 1022.4 0.0
13/09:00pm 14.8 12.9 3.0 45 5.4 E 2 11 1 6 1023.1 1022.3 0.0
13/08:30pm 15.4 12.7 2.6 42 5.9 ESE 6 13 3 7 1022.9 1022.0 0.0
13/08:00pm 15.5 13.3 1.3 38 6.3 N 2 9 1 5 1022.8 1021.9 0.0
13/07:30pm 15.3 12.0 -0.9 33 6.9 S 6 13 3 7 1022.3 1021.4 0.0
13/07:00pm 16.3 13.6 -2.7 27 7.9 S 2 7 1 4 1021.9 1021.0 0.0
13/06:30pm 18.6 13.4 -2.9 23 9.1 SSE 15 20 8 11 1021.2 1020.4 0.0
13/06:00pm 20.1 15.1 -4.2 19 10.1 SSE 13 20 7 11 1020.5 1019.6 0.0
13/05:30pm 21.8 17.0 -5.9 15 11.4 SE 11 24 6 13 1020.0 1019.1 0.0
13/05:00pm 23.9 18.4 -9.5 10 13.0 SE 13 20 7 11 1019.8 1018.9 0.0
13/04:30pm 25.1 19.2 -10.0 9 13.8 SE 15 24 8 13 1019.1 1018.2 0.0
13/04:00pm 26.2 21.0 -10.6 8 14.4 SE 11 20 6 11 1018.7 1017.8 0.0
13/03:30pm 26.6 21.7 -12.0 7 14.8 SSW 9 20 5 11 1018.5 1017.6 0.0
13/03:00pm 26.6 21.7 -12.0 7 14.8 SW 9 17 5 9 1018.5 1017.6 0.0
13/02:30pm 26.8 21.9 -11.8 7 14.9 SSE 9 24 5 13 1018.6 1017.7 0.0
13/02:00pm 26.4 20.1 -10.5 8 14.5 SW 17 32 9 17 1018.8 1017.9 0.0
13/01:30pm 26.3 20.2 -12.2 7 14.7 SW 15 30 8 16 1018.9 1018.0 0.0
13/01:00pm 26.5 20.1 -12.1 7 14.7 WSW 17 30 9 16 1019.3 1018.5 0.0
13/12:30pm 25.8 19.1 -10.9 8 14.2 SW 19 32 10 17 1019.8 1018.9 0.0
13/12:00pm 25.0 17.3 -11.5 8 13.9 SW 24 37 13 20 1020.2 1019.3 0.0
13/11:30am 24.8 18.6 -8.8 10 13.4 WSW 17 30 9 16 1020.6 1019.7 0.0
13/11:00am 22.9 18.5 -6.0 14 11.9 SSW 9 20 5 11 1021.3 1020.5 0.0
13/10:30am 22.3 17.2 -5.6 15 11.6 SW 13 20 7 11 1021.8 1020.9 0.0

Latest Capital City Observations: Canberra | Sydney | Melbourne | Brisbane | Adelaide | Perth | Hobart | Darwin

Other formats

Comma delimited format used in spreadsheet applications
http://www.bom.gov.au/fwo/IDQ60901/IDQ60901.94555.axf

JavaScript Object Notation format (JSON) in row-major order
http://www.bom.gov.au/fwo/IDQ60901/IDQ60901.94555.json

Data quality

Most of these data are generated automatically and are frequently updated. Quality checks on data are not normally performed. It is possible for incorrect values to appear. Refer to information at About Latest Weather Observations and please check the disclaimer before using these data.